Time;durP1;ratioP1;P1;durP2;ratioP2;P2;SDS_P1;SDS_P2;PMS_P1;PMS_P2;Temp;Humidity;BMP_temperature;BMP_pressure;BME280_temperature;BME280_humidity;BME280_pressure;Samples;Min_cycle;Max_cycle;Signal;HPM_P1;HPM_P2
2024/01/26 00:01:52;;;;;;;3.90;3.60;;;;;;;10.39;100.00;101411.41;4927151;29;20244;-77
2024/01/26 00:04:18;;;;;;;4.30;4.00;;;;;;;10.40;100.00;101417.44;4928446;29;20311;-76
2024/01/26 00:06:43;;;;;;;3.90;3.60;;;;;;;10.41;100.00;101421.78;4926003;29;20203;-75
2024/01/26 00:09:10;;;;;;;4.30;3.90;;;;;;;10.42;100.00;101418.34;4924364;29;20203;-77
2024/01/26 00:11:37;;;;;;;4.27;3.87;;;;;;;10.41;100.00;101420.06;4926022;29;20957;-76
2024/01/26 00:14:02;;;;;;;4.07;3.77;;;;;;;10.41;100.00;101421.78;4926656;29;20284;-77
2024/01/26 00:16:27;;;;;;;4.10;3.70;;;;;;;10.40;100.00;101415.75;4926344;29;20274;-77
2024/01/26 00:18:53;;;;;;;4.77;4.20;;;;;;;10.37;100.00;101415.69;4929392;29;20246;-76
2024/01/26 00:21:18;;;;;;;4.67;4.37;;;;;;;10.38;100.00;101412.28;4927174;29;20574;-76
2024/01/26 00:23:44;;;;;;;4.50;4.13;;;;;;;10.36;100.00;101404.44;4927193;29;20200;-76
2024/01/26 00:26:12;;;;;;;4.50;4.10;;;;;;;10.36;100.00;101406.19;4926123;29;20217;-76
2024/01/26 00:28:37;;;;;;;4.30;4.00;;;;;;;10.35;100.00;101397.56;4925114;29;20885;-76
2024/01/26 00:31:03;;;;;;;5.27;4.77;;;;;;;10.32;100.00;101397.53;4926586;29;20184;-76
2024/01/26 00:33:28;;;;;;;4.67;4.27;;;;;;;10.31;100.00;101403.53;4929244;29;20298;-76
2024/01/26 00:35:53;;;;;;;4.50;4.20;;;;;;;10.30;100.00;101396.63;4926004;29;20248;-76
2024/01/26 00:38:19;;;;;;;4.63;4.13;;;;;;;10.30;100.00;101394.06;4925588;29;20207;-76
2024/01/26 00:40:44;;;;;;;5.03;4.63;;;;;;;10.29;100.00;101391.44;4930601;29;20208;-76
2024/01/26 00:43:09;;;;;;;5.93;5.43;;;;;;;10.26;100.00;101389.69;4925047;29;20276;-76
2024/01/26 00:45:35;;;;;;;5.80;5.20;;;;;;;10.22;100.00;101390.50;4928362;29;20226;-76
2024/01/26 00:48:00;;;;;;;6.13;5.53;;;;;;;10.19;100.00;101391.34;4928404;29;20558;-77
2024/01/26 00:50:25;;;;;;;5.93;5.50;;;;;;;10.15;100.00;101380.97;4927705;29;20216;-76
2024/01/26 00:52:51;;;;;;;6.30;5.80;;;;;;;10.11;100.00;101374.91;4936785;29;20183;-75
2024/01/26 00:55:16;;;;;;;6.07;5.57;;;;;;;10.11;100.00;101368.84;4923289;29;20270;-76
2024/01/26 00:57:41;;;;;;;5.20;4.77;;;;;;;10.03;100.00;101371.34;4927947;29;20219;-76
2024/01/26 01:00:07;;;;;;;5.30;4.80;;;;;;;10.00;100.00;101369.59;4926721;29;20212;-77
2024/01/26 01:02:33;;;;;;;4.07;3.77;;;;;;;9.95;100.00;101373.00;4928559;29;20192;-77
2024/01/26 01:04:59;;;;;;;4.73;3.93;;;;;;;9.94;100.00;101376.44;4904498;29;20189;-76
2024/01/26 01:07:25;;;;;;;4.30;4.00;;;;;;;9.94;100.00;101377.28;4924671;29;20188;-77
2024/01/26 01:09:50;;;;;;;3.93;3.63;;;;;;;9.94;100.00;101374.69;4924241;29;20185;-76
2024/01/26 01:12:15;;;;;;;4.07;3.77;;;;;;;9.94;100.00;101373.84;4921385;29;20219;-77
2024/01/26 01:14:41;;;;;;;4.07;3.67;;;;;;;9.94;100.00;101374.69;4905975;29;20218;-76
2024/01/26 01:17:09;;;;;;;4.07;3.67;;;;;;;9.89;100.00;101366.88;4926697;29;20307;-76
2024/01/26 01:19:34;;;;;;;3.70;3.40;;;;;;;9.86;100.00;101356.50;4923754;29;20220;-76
2024/01/26 01:22:00;;;;;;;3.27;3.00;;;;;;;9.83;100.00;101359.06;4924592;29;20199;-77
2024/01/26 01:24:25;;;;;;;3.07;2.87;;;;;;;9.81;100.00;101358.19;4925232;29;20199;-77
2024/01/26 01:26:50;;;;;;;3.43;3.13;;;;;;;9.78;100.00;101352.97;4924449;29;20196;-75
2024/01/26 01:29:16;;;;;;;2.90;2.63;;;;;;;9.78;100.00;101355.56;4927581;29;20250;-76
2024/01/26 01:31:41;;;;;;;3.70;2.80;;;;;;;9.73;100.00;101352.94;4928189;29;20187;-76
2024/01/26 01:34:06;;;;;;;2.87;2.60;;;;;;;9.68;100.00;101351.16;4928184;29;20195;-77
2024/01/26 01:36:32;;;;;;;3.10;2.90;;;;;;;9.66;100.00;101352.84;4925691;29;20203;-76
2024/01/26 01:38:57;;;;;;;2.90;2.60;;;;;;;9.63;100.00;101350.22;4928212;29;20240;-77
2024/01/26 01:41:22;;;;;;;2.67;2.47;;;;;;;9.60;100.00;101351.91;4925822;29;20246;-76
2024/01/26 01:43:57;;;;;;;3.60;2.60;;;;;;;9.56;100.00;101347.53;4927160;29;20210;-76
2024/01/26 01:46:22;;;;;;;2.60;2.40;;;;;;;9.53;100.00;101347.50;4926000;29;20274;-76
2024/01/26 01:48:51;;;;;;;2.33;2.13;;;;;;;9.54;100.00;101340.63;4927438;29;20303;-76
2024/01/26 01:51:17;;;;;;;1.93;1.83;;;;;;;9.53;100.00;101334.56;4907324;29;20679;-76
2024/01/26 01:53:42;;;;;;;3.00;1.97;;;;;;;9.55;100.00;101332.88;4928802;29;20199;-76
2024/01/26 01:56:11;;;;;;;2.73;2.40;;;;;;;9.52;100.00;101343.22;4935477;29;20258;-75
2024/01/26 01:58:41;;;;;;;2.30;1.80;;;;;;;9.48;100.00;101336.25;4939317;29;20230;-76
2024/01/26 02:01:07;;;;;;;1.90;1.80;;;;;;;9.49;100.00;101339.69;4923116;29;20212;-77
2024/01/26 02:03:32;;;;;;;2.13;1.93;;;;;;;9.46;100.00;101337.94;4923666;29;20191;-75
2024/01/26 02:05:58;;;;;;;1.60;1.50;;;;;;;9.47;100.00;101344.84;4919657;29;20213;-75
2024/01/26 02:08:23;;;;;;;1.77;1.67;;;;;;;9.49;100.00;101343.16;4924664;29;20215;-76
2024/01/26 02:10:49;;;;;;;2.00;1.90;;;;;;;9.54;100.00;101346.66;4921053;29;20765;-75
2024/01/26 02:13:14;;;;;;;1.93;1.73;;;;;;;9.53;100.00;101339.75;4923959;29;20190;-76
2024/01/26 02:15:39;;;;;;;1.93;1.40;;;;;;;9.55;100.00;101334.63;4926177;29;20279;-76
2024/01/26 02:18:05;;;;;;;1.77;1.40;;;;;;;9.56;100.00;101336.34;4912253;29;20306;-76
2024/01/26 02:20:31;;;;;;;1.53;1.43;;;;;;;9.56;100.00;101331.19;4903403;29;20223;-77
2024/01/26 02:22:56;;;;;;;1.73;1.57;;;;;;;9.58;100.00;101339.81;4927680;29;20190;-77
2024/01/26 02:25:21;;;;;;;1.63;1.53;;;;;;;9.58;100.00;101342.41;4924694;29;20192;-76
2024/01/26 02:27:47;;;;;;;2.50;1.40;;;;;;;9.61;100.00;101330.38;4925664;29;20215;-76
2024/01/26 02:30:12;;;;;;;1.73;1.33;;;;;;;9.61;100.00;101327.81;4926299;29;20187;-76
2024/01/26 02:32:38;;;;;;;1.80;1.37;;;;;;;9.62;100.00;101328.66;4926853;29;20218;-76
2024/01/26 02:35:03;;;;;;;1.57;1.20;;;;;;;9.63;100.00;101330.38;4924143;29;20187;-76
2024/01/26 02:37:29;;;;;;;2.73;1.53;;;;;;;9.68;100.00;101325.31;4925713;29;20180;-76
2024/01/26 02:39:55;;;;;;;2.10;1.50;;;;;;;9.68;100.00;101320.13;4921866;29;20195;-75
2024/01/26 02:42:21;;;;;;;1.87;1.27;;;;;;;9.69;100.00;101330.47;4925010;29;20196;-77
2024/01/26 02:44:46;;;;;;;1.67;1.00;;;;;;;9.69;100.00;101333.06;4927227;29;20188;-76
2024/01/26 02:47:11;;;;;;;1.40;1.10;;;;;;;9.72;100.00;101327.03;4918805;29;20181;-77
2024/01/26 02:49:37;;;;;;;2.03;1.37;;;;;;;9.71;100.00;101333.06;4923721;29;20199;-76
2024/01/26 02:52:02;;;;;;;0.80;0.80;;;;;;;9.72;100.00;101333.09;4925783;29;20195;-77
2024/01/26 02:54:27;;;;;;;0.83;0.80;;;;;;;9.75;100.00;101335.72;4906398;29;21802;-76
2024/01/26 02:56:53;;;;;;;1.30;0.90;;;;;;;9.79;100.00;101334.03;4925003;29;20191;-76
2024/01/26 02:59:18;;;;;;;0.80;0.80;;;;;;;9.81;100.00;101327.16;4927020;29;20208;-77
2024/01/26 03:01:43;;;;;;;1.00;0.90;;;;;;;9.82;100.00;101339.25;4906265;29;20203;-76
2024/01/26 03:04:09;;;;;;;0.90;0.60;;;;;;;9.82;100.00;101334.06;4926331;29;20192;-76
2024/01/26 03:06:34;;;;;;;0.70;0.70;;;;;;;9.86;100.00;101335.81;4923901;29;20256;-76
2024/01/26 03:09:00;;;;;;;1.13;0.90;;;;;;;9.90;100.00;101334.16;4926533;29;20216;-75
2024/01/26 03:11:37;;;;;;;0.97;0.83;;;;;;;9.94;100.00;101335.06;4925574;29;20196;-76
2024/01/26 03:14:04;;;;;;;0.83;0.60;;;;;;;9.95;100.00;101329.03;4921831;29;20188;-75
2024/01/26 03:16:30;;;;;;;1.23;0.83;;;;;;;9.97;100.00;101329.91;4909197;29;20590;-78
2024/01/26 03:18:55;;;;;;;0.87;0.70;;;;;;;9.96;100.00;101339.38;4923597;29;20219;-76
2024/01/26 03:21:21;;;;;;;1.10;0.77;;;;;;;9.97;100.00;101345.44;4929680;29;20234;-76
2024/01/26 03:23:46;;;;;;;1.20;1.07;;;;;;;9.96;100.00;101339.38;4931546;29;20589;-76
2024/01/26 03:26:11;;;;;;;1.00;0.60;;;;;;;9.99;100.00;101341.13;4926658;29;20199;-76
2024/01/26 03:28:37;;;;;;;1.37;1.10;;;;;;;10.01;100.00;101348.06;4930323;29;20207;-76
2024/01/26 03:31:02;;;;;;;0.73;0.73;;;;;;;10.02;100.00;101339.44;4914947;29;20738;-76
2024/01/26 03:33:27;;;;;;;2.07;0.80;;;;;;;10.03;100.00;101337.72;4929187;29;20626;-77
2024/01/26 03:35:52;;;;;;;1.10;0.60;;;;;;;10.02;100.00;101335.97;4927971;29;20197;-76
2024/01/26 03:38:18;;;;;;;1.13;0.70;;;;;;;10.01;100.00;101339.41;4927135;29;20211;-76
2024/01/26 03:40:43;;;;;;;2.03;1.00;;;;;;;10.01;100.00;101344.59;4926881;29;20865;-76
2024/01/26 03:43:08;;;;;;;1.43;0.90;;;;;;;10.00;100.00;101356.66;4913613;29;20190;-76
2024/01/26 03:45:33;;;;;;;1.30;0.70;;;;;;;9.99;100.00;101351.47;4929212;29;20671;-76
2024/01/26 03:47:59;;;;;;;0.97;0.77;;;;;;;9.98;100.00;101352.34;4929162;29;20211;-76
2024/01/26 03:50:24;;;;;;;0.73;0.73;;;;;;;9.97;100.00;101343.69;4923109;29;20198;-77
2024/01/26 03:52:49;;;;;;;1.63;0.70;;;;;;;9.95;100.00;101340.22;4925715;29;20197;-75
2024/01/26 03:55:15;;;;;;;0.87;0.70;;;;;;;9.96;100.00;101344.53;4930770;29;20183;-76
2024/01/26 03:57:40;;;;;;;2.33;0.87;;;;;;;9.95;100.00;101341.97;4927668;29;20203;-76
2024/01/26 04:00:06;;;;;;;0.80;0.70;;;;;;;9.98;100.00;101342.84;4926989;29;20212;-76
2024/01/26 04:02:31;;;;;;;0.90;0.73;;;;;;;10.01;100.00;101345.47;4930109;29;20288;-76
2024/01/26 04:04:56;;;;;;;1.27;0.70;;;;;;;10.03;100.00;101340.31;4927884;29;20283;-77
2024/01/26 04:07:22;;;;;;;1.00;0.90;;;;;;;10.01;100.00;101337.72;4911967;29;20989;-76
2024/01/26 04:09:47;;;;;;;1.10;0.90;;;;;;;9.98;100.00;101335.09;4928875;29;20192;-76
2024/01/26 04:12:12;;;;;;;1.23;0.83;;;;;;;9.93;100.00;101341.91;4930635;29;20207;-76
2024/01/26 04:14:38;;;;;;;1.77;0.93;;;;;;;9.95;100.00;101337.63;4939043;29;20218;-75
2024/01/26 04:17:03;;;;;;;1.73;1.00;;;;;;;9.94;100.00;101340.22;4929212;29;20197;-76
2024/01/26 04:19:28;;;;;;;2.23;1.10;;;;;;;9.92;100.00;101329.84;4926705;29;20709;-76
2024/01/26 04:21:54;;;;;;;1.40;0.97;;;;;;;9.88;100.00;101317.75;4909390;29;20666;-76
2024/01/26 04:24:19;;;;;;;2.20;1.40;;;;;;;9.84;100.00;101324.59;4922284;29;20189;-76
2024/01/26 04:26:45;;;;;;;1.20;0.80;;;;;;;9.83;100.00;101328.03;4925157;29;20189;-76
2024/01/26 04:29:10;;;;;;;1.30;1.10;;;;;;;9.81;100.00;101334.94;4920613;29;20714;-76
2024/01/26 04:31:42;;;;;;;3.07;0.93;;;;;;;9.80;100.00;101342.66;4927632;29;20986;-76
2024/01/26 04:34:07;;;;;;;1.10;0.97;;;;;;;9.79;100.00;101344.38;4928779;29;20188;-76
2024/01/26 04:36:33;;;;;;;1.10;1.00;;;;;;;9.81;100.00;101350.44;4927088;29;20189;-75
2024/01/26 04:38:59;;;;;;;2.13;1.23;;;;;;;9.82;100.00;101354.75;4925316;29;20218;-76
2024/01/26 04:41:25;;;;;;;3.17;1.47;;;;;;;9.78;100.00;101345.22;4922201;29;20322;-77
2024/01/26 04:43:51;;;;;;;2.03;1.10;;;;;;;9.77;100.00;101348.66;4925556;29;20810;-77
2024/01/26 04:46:16;;;;;;;2.10;1.23;;;;;;;9.79;100.00;101346.06;4927613;29;20197;-76
2024/01/26 04:48:41;;;;;;;2.37;1.10;;;;;;;9.79;100.00;101346.06;4927389;29;20211;-77
2024/01/26 04:51:06;;;;;;;1.53;1.03;;;;;;;9.79;100.00;101338.31;4924055;29;20184;-77
2024/01/26 04:53:32;;;;;;;1.50;1.10;;;;;;;9.80;100.00;101338.34;4926898;29;20222;-76
2024/01/26 04:55:57;;;;;;;1.47;1.00;;;;;;;9.78;100.00;101337.47;4927921;29;20638;-76
2024/01/26 04:58:23;;;;;;;1.63;1.20;;;;;;;9.77;100.00;101336.59;4926283;29;20587;-76
2024/01/26 05:00:49;;;;;;;1.03;0.97;;;;;;;9.81;100.00;101326.28;4927674;29;20579;-77
2024/01/26 05:03:15;;;;;;;3.17;1.20;;;;;;;9.79;100.00;101323.69;4925841;29;20195;-76
2024/01/26 05:05:40;;;;;;;1.47;0.80;;;;;;;9.76;100.00;101316.75;4923677;29;20209;-76
2024/01/26 05:08:06;;;;;;;1.00;0.90;;;;;;;9.80;100.00;101306.44;4921388;29;20657;-76
2024/01/26 05:10:31;;;;;;;1.80;1.07;;;;;;;9.81;100.00;101310.78;4923835;29;20235;-76
2024/01/26 05:12:57;;;;;;;2.33;0.93;;;;;;;9.80;100.00;101311.63;4923993;29;20677;-76
2024/01/26 05:15:22;;;;;;;2.00;1.30;;;;;;;9.80;100.00;101309.91;4926964;29;20287;-76
2024/01/26 05:17:47;;;;;;;1.20;1.10;;;;;;;9.81;100.00;101298.72;4925364;29;20211;-76
2024/01/26 05:20:13;;;;;;;1.70;1.27;;;;;;;9.82;100.00;101300.47;4926840;29;20286;-78
2024/01/26 05:22:38;;;;;;;1.00;0.90;;;;;;;9.85;100.00;101297.88;4905325;29;20241;-76
2024/01/26 05:25:04;;;;;;;1.00;0.90;;;;;;;9.86;100.00;101307.38;4929090;29;20230;-76
2024/01/26 05:27:30;;;;;;;1.53;1.30;;;;;;;9.88;100.00;101305.69;4927391;29;20875;-76
2024/01/26 05:29:56;;;;;;;1.77;1.37;;;;;;;9.90;100.00;101306.56;4929551;29;20192;-76
2024/01/26 05:32:22;;;;;;;1.53;1.20;;;;;;;9.89;100.00;101301.41;4925335;29;20254;-76
2024/01/26 05:34:47;;;;;;;2.20;1.10;;;;;;;9.87;100.00;101301.34;4927555;29;20220;-78
2024/01/26 05:37:13;;;;;;;1.97;1.40;;;;;;;9.91;100.00;101294.50;4924583;29;20211;-76
2024/01/26 05:39:38;;;;;;;2.80;1.60;;;;;;;9.91;100.00;101302.25;4926921;29;20315;-75
2024/01/26 05:42:03;;;;;;;3.10;1.40;;;;;;;9.91;100.00;101303.13;4924081;29;20195;-77
2024/01/26 05:44:29;;;;;;;2.47;1.47;;;;;;;9.89;100.00;101297.06;4926893;29;20975;-77
2024/01/26 05:46:54;;;;;;;2.03;1.60;;;;;;;9.90;100.00;101303.13;4914891;29;20192;-76
2024/01/26 05:49:19;;;;;;;2.63;1.47;;;;;;;9.93;100.00;101304.88;4918713;29;20618;-76
2024/01/26 05:51:45;;;;;;;3.23;1.33;;;;;;;9.93;100.00;101303.13;4926819;29;20198;-76
2024/01/26 05:54:11;;;;;;;2.20;1.40;;;;;;;9.98;100.00;101314.41;4927560;29;20191;-77
2024/01/26 05:56:40;;;;;;;1.23;1.00;;;;;;;10.00;100.00;101319.56;4924044;29;20188;-77
2024/01/26 05:59:06;;;;;;;2.17;1.20;;;;;;;9.98;100.00;101304.06;4907127;29;20940;-77
2024/01/26 06:01:31;;;;;;;2.73;1.37;;;;;;;10.02;100.00;101316.19;4920441;29;20216;-77
2024/01/26 06:03:57;;;;;;;1.27;1.17;;;;;;;10.03;100.00;101314.44;4929986;29;20184;-76
2024/01/26 06:06:22;;;;;;;1.43;1.20;;;;;;;10.07;100.00;101321.38;4926527;29;20228;-76
2024/01/26 06:08:48;;;;;;;1.53;1.20;;;;;;;10.09;100.00;101322.28;4927502;29;20215;-76
2024/01/26 06:11:14;;;;;;;1.83;1.00;;;;;;;10.09;100.00;101326.56;4926020;29;20231;-77
2024/01/26 06:13:40;;;;;;;2.67;1.20;;;;;;;10.09;100.00;101335.22;4908342;29;20768;-76
2024/01/26 06:16:06;;;;;;;1.73;1.20;;;;;;;10.06;100.00;101333.44;4925924;29;20666;-75
2024/01/26 06:18:31;;;;;;;1.40;1.10;;;;;;;10.07;100.00;101337.75;4924084;29;20211;-77
2024/01/26 06:20:56;;;;;;;0.87;0.80;;;;;;;10.04;100.00;101342.03;4923453;29;20322;-76
2024/01/26 06:23:21;;;;;;;1.50;1.20;;;;;;;10.04;100.00;101339.47;4926798;29;20195;-77
2024/01/26 06:25:47;;;;;;;2.60;1.30;;;;;;;10.03;100.00;101343.78;4923578;29;20208;-76
2024/01/26 06:28:12;;;;;;;1.40;1.30;;;;;;;10.03;100.00;101336.00;4922671;29;20598;-76
2024/01/26 06:30:38;;;;;;;1.97;1.30;;;;;;;10.05;100.00;101343.78;4922677;29;20219;-75
2024/01/26 06:33:03;;;;;;;1.73;1.53;;;;;;;10.05;100.00;101338.59;4911134;29;20191;-76
2024/01/26 06:35:29;;;;;;;2.03;1.30;;;;;;;10.03;100.00;101341.19;4926108;29;20192;-76
2024/01/26 06:37:54;;;;;;;1.90;1.37;;;;;;;10.03;100.00;101345.47;4926354;29;20211;-77
2024/01/26 06:40:19;;;;;;;1.67;1.27;;;;;;;10.03;100.00;101345.47;4913259;29;20274;-76
2024/01/26 06:42:45;;;;;;;1.50;1.30;;;;;;;10.06;100.00;101340.34;4927772;29;20187;-77
2024/01/26 06:45:12;;;;;;;1.70;1.60;;;;;;;10.08;100.00;101341.22;4929591;29;20192;-76
2024/01/26 06:47:37;;;;;;;4.10;3.30;;;;;;;10.12;100.00;101337.84;4927331;29;20214;-76
2024/01/26 06:50:04;;;;;;;5.20;4.70;;;;;;;10.06;100.00;101333.44;4926230;29;20180;-76
2024/01/26 06:52:30;;;;;;;4.73;4.20;;;;;;;10.09;100.00;101334.31;4927968;29;20283;-76
2024/01/26 06:54:55;;;;;;;3.10;2.80;;;;;;;10.07;100.00;101322.25;4929257;29;20980;-76
2024/01/26 06:57:21;;;;;;;8.03;5.93;;;;;;;10.06;100.00;101330.00;4931429;29;20200;-76
2024/01/26 06:59:46;;;;;;;7.13;6.43;;;;;;;10.05;100.00;101323.09;4931049;29;20562;-77
2024/01/26 07:02:11;;;;;;;4.43;4.03;;;;;;;10.03;100.00;101328.25;4912237;29;20188;-76
2024/01/26 07:04:37;;;;;;;5.63;5.07;;;;;;;10.05;100.00;101323.09;4930075;29;20220;-77
2024/01/26 07:07:02;;;;;;;6.23;4.97;;;;;;;10.02;100.00;101320.47;4929335;29;20263;-76
2024/01/26 07:09:27;;;;;;;11.80;10.57;;;;;;;10.02;100.00;101304.94;4927419;29;20220;-76
2024/01/26 07:11:53;;;;;;;16.00;13.03;;;;;;;10.01;100.00;101301.50;4925615;29;20567;-76
2024/01/26 07:14:19;;;;;;;20.13;13.23;;;;;;;10.02;100.00;101304.94;4930201;29;20284;-76
2024/01/26 07:16:45;;;;;;;21.97;16.77;;;;;;;10.07;100.00;101300.69;4934859;29;20175;-77
2024/01/26 07:19:11;;;;;;;17.27;12.57;;;;;;;10.03;100.00;101319.63;4930765;29;20261;-76
2024/01/26 07:21:36;;;;;;;6.97;6.10;;;;;;;10.05;100.00;101326.56;4931899;29;20570;-75
2024/01/26 07:24:01;;;;;;;9.03;8.00;;;;;;;10.09;100.00;101305.88;4931083;29;20292;-76
2024/01/26 07:26:26;;;;;;;7.63;6.50;;;;;;;10.07;100.00;101316.22;4932575;29;20215;-77
2024/01/26 07:28:52;;;;;;;8.73;7.83;;;;;;;10.08;100.00;101315.38;4932862;29;20215;-76
2024/01/26 07:31:17;;;;;;;7.60;6.50;;;;;;;10.11;100.00;101309.34;4911834;29;20216;-76
2024/01/26 07:33:42;;;;;;;10.37;7.70;;;;;;;10.13;100.00;101308.53;4932333;29;20197;-75
2024/01/26 07:36:08;;;;;;;7.37;5.63;;;;;;;10.18;100.00;101288.72;4942252;29;20190;-76
2024/01/26 07:38:33;;;;;;;5.40;4.43;;;;;;;10.17;100.00;101291.31;4933718;29;20219;-76
2024/01/26 07:40:59;;;;;;;13.77;9.30;;;;;;;10.15;100.00;101290.44;4928066;29;20216;-76
2024/01/26 07:43:24;;;;;;;10.03;7.50;;;;;;;10.16;100.00;101282.66;4928255;29;20197;-75
2024/01/26 07:45:50;;;;;;;4.17;3.57;;;;;;;10.19;100.00;101272.34;4929452;29;20187;-75
2024/01/26 07:48:15;;;;;;;3.70;3.10;;;;;;;10.14;100.00;101265.41;4927071;29;20471;-75
2024/01/26 07:50:41;;;;;;;3.23;2.90;;;;;;;10.11;100.00;101265.38;4931892;29;20547;-75
2024/01/26 07:53:07;;;;;;;3.00;1.83;;;;;;;10.11;100.00;101249.84;4931419;29;20220;-75
2024/01/26 07:55:32;;;;;;;1.83;1.50;;;;;;;10.06;100.00;101261.03;4929927;29;20184;-75
2024/01/26 07:57:58;;;;;;;1.43;1.33;;;;;;;10.05;100.00;101255.84;4930200;29;20202;-76
2024/01/26 08:00:23;;;;;;;1.57;1.47;;;;;;;10.02;100.00;101254.09;4929588;29;20254;-76
2024/01/26 08:02:48;;;;;;;1.30;1.20;;;;;;;10.05;100.00;101261.03;4925991;29;20327;-76
2024/01/26 08:05:14;;;;;;;1.30;1.20;;;;;;;10.08;100.00;101250.72;4931916;29;20264;-76
2024/01/26 08:07:39;;;;;;;1.63;1.43;;;;;;;10.12;100.00;101239.53;4927379;29;20777;-77
2024/01/26 08:10:05;;;;;;;1.63;1.37;;;;;;;10.14;100.00;101245.56;4931582;29;20188;-78
2024/01/26 08:12:31;;;;;;;1.73;1.37;;;;;;;10.15;100.00;101246.44;4920382;29;20210;-77
2024/01/26 08:14:56;;;;;;;2.40;1.60;;;;;;;10.21;100.00;101228.38;4924114;29;20687;-76
2024/01/26 08:17:22;;;;;;;2.33;1.43;;;;;;;10.25;100.00;101230.13;4930362;29;20215;-75
2024/01/26 08:19:47;;;;;;;1.60;1.50;;;;;;;10.29;100.00;101226.72;4927882;29;20643;-76
2024/01/26 08:22:12;;;;;;;1.73;1.40;;;;;;;10.39;100.00;101232.00;4913313;29;20198;-76
2024/01/26 08:24:37;;;;;;;1.43;1.30;;;;;;;10.42;100.00;101237.19;4929498;29;20203;-77
2024/01/26 08:27:03;;;;;;;1.43;1.27;;;;;;;10.47;100.00;101235.50;4925760;29;20197;-76
2024/01/26 08:29:28;;;;;;;1.83;1.40;;;;;;;10.47;100.00;101241.53;4911034;29;20320;-76
2024/01/26 08:31:54;;;;;;;1.50;1.30;;;;;;;10.49;100.00;101252.78;4911589;29;20313;-75
2024/01/26 08:34:19;;;;;;;1.70;1.20;;;;;;;10.55;100.00;101258.84;4929085;29;21912;-76
2024/01/26 08:36:45;;;;;;;1.20;1.10;;;;;;;10.62;100.00;101261.50;4929345;29;20188;-76
2024/01/26 08:39:13;;;;;;;2.37;1.10;;;;;;;10.73;100.00;101264.16;4930371;29;20533;-76
2024/01/26 08:41:39;;;;;;;2.27;1.37;;;;;;;10.81;100.00;101261.63;4932036;29;20305;-76
2024/01/26 08:44:04;;;;;;;1.50;1.20;;;;;;;10.87;100.00;101259.03;4923911;29;20219;-76
2024/01/26 08:46:30;;;;;;;1.10;0.90;;;;;;;10.89;100.00;101252.16;4930261;29;20659;-76
2024/01/26 08:48:55;;;;;;;1.27;1.10;;;;;;;10.96;100.00;101258.22;4917945;29;20237;-75
2024/01/26 08:51:23;;;;;;;2.07;0.93;;;;;;;11.02;100.00;101253.09;4932090;29;20933;-75
2024/01/26 08:53:48;;;;;;;2.17;1.43;;;;;;;11.08;100.00;101254.84;4926056;29;20669;-76
2024/01/26 08:56:15;;;;;;;1.40;1.27;;;;;;;11.11;100.00;101242.75;4923287;29;20253;-77
2024/01/26 08:58:41;;;;;;;2.00;1.40;;;;;;;11.16;100.00;101237.59;4924688;29;20234;-76
2024/01/26 09:01:07;;;;;;;1.40;1.17;;;;;;;11.23;100.00;101234.19;4924601;29;20204;-75
2024/01/26 09:03:32;;;;;;;1.60;1.43;;;;;;;11.31;100.00;101235.91;4927968;29;20683;-78
2024/01/26 09:05:58;;;;;;;2.13;1.33;;;;;;;11.35;100.00;101224.69;4920922;29;20752;-75
2024/01/26 09:08:23;;;;;;;1.40;1.30;;;;;;;11.36;100.00;101213.47;4929242;29;20219;-76
2024/01/26 09:10:49;;;;;;;1.17;1.00;;;;;;;11.47;100.00;101216.09;4927146;29;20183;-76
2024/01/26 09:13:14;;;;;;;1.80;1.20;;;;;;;11.50;100.00;101216.97;4924779;29;20186;-76
2024/01/26 09:15:40;;;;;;;2.10;1.30;;;;;;;11.54;100.00;101229.09;4927039;29;20200;-75
2024/01/26 09:18:05;;;;;;;1.33;1.00;;;;;;;11.56;100.00;101229.06;4926392;29;20880;-78
2024/01/26 09:20:30;;;;;;;1.50;1.10;;;;;;;11.54;100.00;101220.41;4928130;29;20216;-78
2024/01/26 09:22:56;;;;;;;2.30;1.47;;;;;;;11.49;100.00;101225.59;4924180;29;20194;-75
2024/01/26 09:25:21;;;;;;;1.93;1.20;;;;;;;11.48;100.00;101218.69;4926624;29;20189;-77
2024/01/26 09:27:46;;;;;;;1.97;1.30;;;;;;;11.53;100.00;101224.75;4925212;29;20207;-77
2024/01/26 09:30:12;;;;;;;1.57;1.13;;;;;;;11.56;100.00;101216.09;4924910;29;20205;-77
2024/01/26 09:32:37;;;;;;;1.47;1.37;;;;;;;11.54;100.00;101223.91;4926740;29;20236;-75
2024/01/26 09:35:04;;;;;;;2.23;1.30;;;;;;;11.56;100.00;101214.41;4912610;29;20227;-76
2024/01/26 09:37:29;;;;;;;2.80;1.20;;;;;;;11.60;100.00;101220.44;4925892;29;20711;-77
2024/01/26 09:39:54;;;;;;;3.73;1.40;;;;;;;11.61;100.00;101222.19;4925857;29;20215;-79
2024/01/26 09:42:20;;;;;;;1.33;1.13;;;;;;;11.64;100.00;101232.56;4919696;29;21768;-76
2024/01/26 09:44:46;;;;;;;2.37;1.53;;;;;;;11.66;100.00;101229.97;4925490;29;20201;-77
2024/01/26 09:47:17;;;;;;;2.87;1.67;;;;;;;11.65;100.00;101217.84;4927674;29;20192;-76
2024/01/26 09:49:49;;;;;;;2.20;1.40;;;;;;;11.62;100.00;101207.47;4925814;29;20215;-75
2024/01/26 09:52:17;;;;;;;1.53;1.30;;;;;;;11.61;100.00;101196.25;4924467;29;20197;-78
2024/01/26 09:54:44;;;;;;;2.13;1.30;;;;;;;11.63;100.00;101204.91;4921911;29;20194;-78
2024/01/26 09:57:10;;;;;;;1.50;1.40;;;;;;;11.67;100.00;101211.78;4923744;29;20573;-76
2024/01/26 09:59:36;;;;;;;1.60;1.47;;;;;;;11.70;100.00;101198.00;4921143;29;20229;-78
2024/01/26 10:02:02;;;;;;;2.20;1.40;;;;;;;11.76;100.00;101192.78;4919549;29;20207;-77
2024/01/26 10:04:27;;;;;;;1.90;1.70;;;;;;;11.88;100.00;101195.38;4919473;29;20196;-77
2024/01/26 10:06:53;;;;;;;1.70;1.60;;;;;;;11.95;100.00;101185.03;4925821;29;20206;-77
2024/01/26 10:09:18;;;;;;;1.90;1.50;;;;;;;12.05;100.00;101179.00;4920546;29;20325;-78
2024/01/26 10:11:43;;;;;;;2.00;1.80;;;;;;;12.13;100.00;101191.94;4926819;29;20234;-78
2024/01/26 10:14:09;;;;;;;4.57;4.17;;;;;;;12.18;100.00;101196.28;4922985;29;20200;-78
2024/01/26 10:16:34;;;;;;;4.60;3.60;;;;;;;12.26;100.00;101198.00;4926647;29;20245;-77
2024/01/26 10:19:00;;;;;;;2.83;2.57;;;;;;;12.37;100.00;101196.25;4924807;29;20218;-76
2024/01/26 10:21:25;;;;;;;3.50;2.93;;;;;;;12.34;100.00;101196.25;4926708;29;20258;-77
2024/01/26 10:23:50;;;;;;;2.37;2.07;;;;;;;12.40;100.00;101198.00;4924037;29;20293;-78
2024/01/26 10:26:16;;;;;;;7.57;5.27;;;;;;;12.40;100.00;101213.56;4925587;29;20201;-77
2024/01/26 10:28:43;;;;;;;3.07;2.27;;;;;;;12.44;100.00;101207.50;4925737;29;20217;-78
2024/01/26 10:31:08;;;;;;;3.83;3.43;;;;;;;12.47;100.00;101220.47;4930152;29;20216;-77
2024/01/26 10:33:37;;;;;;;2.33;2.00;;;;;;;12.44;100.00;101215.28;4926528;29;20663;-77
2024/01/26 10:36:02;;;;;;;1.90;1.70;;;;;;;12.52;100.00;101220.44;4928582;29;20661;-76
2024/01/26 10:38:30;;;;;;;1.90;1.60;;;;;;;12.47;100.00;101223.06;4931856;29;20222;-77
2024/01/26 10:41:03;;;;;;;1.77;1.50;;;;;;;12.40;100.00;101224.81;4931975;29;20839;-77
2024/01/26 10:43:30;;;;;;;2.10;1.40;;;;;;;12.37;100.00;101216.16;4930078;29;20913;-78
2024/01/26 10:45:56;;;;;;;1.50;1.33;;;;;;;12.43;100.00;101223.94;4913925;29;20202;-77
2024/01/26 10:48:22;;;;;;;2.37;1.60;;;;;;;12.53;100.00;101230.84;4927403;29;20737;-77
2024/01/26 10:50:48;;;;;;;4.10;1.77;;;;;;;12.60;100.00;101232.56;4931915;29;20202;-77
2024/01/26 10:53:14;;;;;;;2.93;1.80;;;;;;;12.52;100.00;101241.22;4939605;29;20223;-78
2024/01/26 10:55:40;;;;;;;2.23;1.77;;;;;;;12.42;100.00;101238.66;4932325;29;20688;-78
2024/01/26 10:58:07;;;;;;;3.00;1.80;;;;;;;12.41;100.00;101238.63;4925843;29;20303;-76
2024/01/26 11:00:33;;;;;;;2.97;1.60;;;;;;;12.50;100.00;101218.72;4930141;29;20231;-77
2024/01/26 11:02:59;;;;;;;2.17;1.60;;;;;;;12.56;100.00;101214.41;4927976;29;20203;-76
2024/01/26 11:05:25;;;;;;;2.17;1.97;;;;;;;12.42;100.00;101210.09;4926219;29;20893;-77
2024/01/26 11:07:51;;;;;;;2.27;1.80;;;;;;;12.41;100.00;101221.34;4913059;29;20369;-77
2024/01/26 11:10:21;;;;;;;1.67;1.53;;;;;;;12.35;100.00;101222.22;4930310;29;20830;-77
2024/01/26 11:12:47;;;;;;;2.90;1.93;;;;;;;12.33;100.00;101218.75;4925486;29;20284;-77